Trujilo, Venezuela
Current Conditions -  °F | °C
As of 2:00 AM on Saturday 25 Oct 2014 (Local Time) from SVBI Reporting Station
Broken Clouds Broken Clouds  
Wind Chill: 77°   Ceiling: 1700
Heat Index: 78°   Visibility: 6mi
Dew Point: 77°   Wind: 2mph
Humidity: 100%   Direction: 260°W
Pressure: 29.83"   Gusts: NA
Location:  9.37°N, 70.43°W
Report Text: SVBI 250600Z 26002KT 9999 BKN017 25/25 Q1010
Loading
Personal Weather Stations






























Interactive Weather Map
Tropical Storm Tracking
New forecast layout! Learn more

10-Day Weather Forecast

Advertisements
Track Severe Weather on mobile